createdAt,value
2022-10-25T00:01:27.626Z,7.95
2022-10-25T00:03:54.784Z,7.79
2022-10-25T00:06:22.695Z,7.35
2022-10-25T00:08:50.082Z,7.83
2022-10-25T00:11:23.262Z,7.90
2022-10-25T00:13:51.792Z,7.43
2022-10-25T00:16:21.798Z,7.09
2022-10-25T00:18:48.442Z,7.21
2022-10-25T00:21:15.054Z,7.28
2022-10-25T00:23:41.854Z,7.09
2022-10-25T00:26:10.409Z,7.24
2022-10-25T00:28:37.761Z,7.71
2022-10-25T00:31:13.692Z,7.02
2022-10-25T00:33:42.664Z,7.01
2022-10-25T00:36:19.577Z,6.67
2022-10-25T00:38:46.743Z,6.44
2022-10-25T00:41:16.358Z,6.55
2022-10-25T00:43:48.204Z,6.56
2022-10-25T00:46:20.659Z,6.62
2022-10-25T00:48:53.090Z,6.70
2022-10-25T00:51:24.104Z,6.93
2022-10-25T00:53:51.827Z,6.22
2022-10-25T00:56:27.656Z,6.31
2022-10-25T00:59:00.648Z,5.98
2022-10-25T01:01:27.938Z,6.56
2022-10-25T01:03:57.963Z,6.83
2022-10-25T01:06:31.821Z,7.75
2022-10-25T01:08:59.328Z,7.34
2022-10-25T01:11:25.984Z,7.66
2022-10-25T01:13:53.547Z,8.13
2022-10-25T01:16:39.544Z,8.38
2022-10-25T01:19:24.891Z,8.23
2022-10-25T01:22:09.650Z,8.46
2022-10-25T01:24:48.352Z,8.67
2022-10-25T01:27:42.749Z,8.55
2022-10-25T01:30:24.882Z,8.12
2022-10-25T01:33:05.943Z,8.55
2022-10-25T01:35:59.488Z,8.47
2022-10-25T01:38:26.029Z,8.47
2022-10-25T01:41:27.504Z,8.67
2022-10-25T01:44:12.557Z,8.87
2022-10-25T01:46:57.717Z,8.53
2022-10-25T01:49:33.780Z,9.11
2022-10-25T01:52:01.648Z,8.92
2022-10-25T01:54:28.260Z,9.29
2022-10-25T01:57:17.768Z,8.80
2022-10-25T01:59:53.152Z,8.19
2022-10-25T02:02:33.080Z,8.10
2022-10-25T02:05:21.906Z,7.79
2022-10-25T02:08:14.820Z,7.86
2022-10-25T02:10:48.430Z,7.54
2022-10-25T02:13:58.334Z,7.10
2022-10-25T02:16:29.303Z,6.97
2022-10-25T02:19:05.968Z,6.35
2022-10-25T02:21:36.763Z,6.05
2022-10-25T02:24:18.253Z,5.52
2022-10-25T02:29:25.672Z,4.87
2022-10-25T02:31:52.339Z,4.24
2022-10-25T02:34:19.686Z,3.90
2022-10-25T02:36:51.093Z,3.59
2022-10-25T02:39:20.541Z,3.30
2022-10-25T02:41:47.176Z,2.81
2022-10-25T02:44:14.062Z,2.83
2022-10-25T02:46:40.731Z,2.41
2022-10-25T02:49:07.404Z,2.32
2022-10-25T02:51:34.056Z,2.20
2022-10-25T02:54:00.670Z,2.24
2022-10-25T02:56:27.321Z,2.41
2022-10-25T02:58:57.536Z,2.76
2022-10-25T03:01:25.415Z,2.51
2022-10-25T03:03:52.743Z,2.75
2022-10-25T03:06:19.461Z,2.75
2022-10-25T03:08:46.417Z,2.80
2022-10-25T03:11:14.878Z,2.64
2022-10-25T03:13:41.516Z,3.06
2022-10-25T03:16:08.532Z,2.78
2022-10-25T03:18:35.350Z,2.63
2022-10-25T03:21:03.758Z,2.58
2022-10-25T03:23:30.917Z,2.49
2022-10-25T03:25:59.382Z,2.02
2022-10-25T03:28:28.139Z,2.05
2022-10-25T03:30:56.388Z,1.98
2022-10-25T03:33:26.188Z,2.00
2022-10-25T03:35:54.411Z,1.84
2022-10-25T03:38:21.958Z,1.74
2022-10-25T03:40:48.556Z,1.67
2022-10-25T03:43:15.352Z,1.77
2022-10-25T03:45:41.996Z,1.61
2022-10-25T03:48:08.600Z,1.61
2022-10-25T03:50:35.358Z,1.55
2022-10-25T03:53:02.173Z,1.80
2022-10-25T03:55:28.814Z,1.82
2022-10-25T03:57:55.417Z,2.09
2022-10-25T04:00:22.190Z,2.02
2022-10-25T04:03:01.728Z,2.16
2022-10-25T04:05:30.276Z,2.02
2022-10-25T04:07:57.480Z,2.09
2022-10-25T04:10:25.305Z,2.18
2022-10-25T04:13:12.164Z,2.06
2022-10-25T04:15:38.788Z,2.00
2022-10-25T04:18:05.901Z,2.03
2022-10-25T04:20:32.512Z,1.98
2022-10-25T04:22:59.162Z,1.82
2022-10-25T04:25:28.034Z,1.86
2022-10-25T04:27:55.136Z,1.96
2022-10-25T04:30:21.753Z,1.78
2022-10-25T04:32:48.509Z,1.77
2022-10-25T04:35:15.376Z,1.59
2022-10-25T04:37:42.058Z,1.88
2022-10-25T04:40:09.343Z,1.54
2022-10-25T04:42:36.061Z,1.74
2022-10-25T04:45:03.456Z,1.61
2022-10-25T04:47:31.604Z,1.58
2022-10-25T04:49:58.456Z,1.56
2022-10-25T04:52:25.090Z,1.66
2022-10-25T04:54:51.661Z,1.50
2022-10-25T04:57:18.353Z,1.72
2022-10-25T04:59:44.996Z,1.47
2022-10-25T05:02:11.666Z,1.52
2022-10-25T05:04:38.247Z,1.48
2022-10-25T05:07:04.835Z,1.59
2022-10-25T05:09:31.533Z,1.63
2022-10-25T05:11:58.179Z,1.72
2022-10-25T05:14:24.855Z,1.73
2022-10-25T05:16:51.448Z,1.79
2022-10-25T05:19:18.091Z,1.99
2022-10-25T05:21:44.773Z,2.48
2022-10-25T05:24:11.368Z,2.01
2022-10-25T05:26:37.966Z,1.92
2022-10-25T05:29:07.874Z,1.84
2022-10-25T05:31:36.714Z,1.65
2022-10-25T05:34:04.798Z,1.71
2022-10-25T05:36:31.399Z,1.95
2022-10-25T05:38:59.583Z,4.30
2022-10-25T05:41:26.727Z,3.20
2022-10-25T05:43:53.397Z,1.66
2022-10-25T05:46:22.648Z,1.67
2022-10-25T05:48:51.610Z,1.64
2022-10-25T05:51:35.836Z,1.74
2022-10-25T05:54:10.975Z,1.69
2022-10-25T05:56:39.492Z,2.32
2022-10-25T05:59:14.645Z,2.57
2022-10-25T06:01:44.388Z,2.14
2022-10-25T06:04:13.657Z,2.04
2022-10-25T06:06:41.730Z,2.13
2022-10-25T06:09:09.673Z,2.05
2022-10-25T06:11:38.634Z,2.01
2022-10-25T06:14:06.771Z,2.00
2022-10-25T06:16:33.951Z,2.09
2022-10-25T06:19:00.774Z,2.43
2022-10-25T06:21:29.743Z,2.36
2022-10-25T06:23:59.008Z,2.11
2022-10-25T06:26:28.700Z,2.58
2022-10-25T06:28:58.498Z,3.26
2022-10-25T06:31:25.350Z,3.34
2022-10-25T06:33:52.123Z,2.53
2022-10-25T06:36:21.697Z,2.69
2022-10-25T06:38:49.845Z,3.32
2022-10-25T06:41:22.452Z,5.43
2022-10-25T06:43:49.833Z,8.14
2022-10-25T06:46:31.149Z,15.84
2022-10-25T06:48:58.809Z,3.10
2022-10-25T06:51:27.907Z,3.20
2022-10-25T06:53:59.771Z,4.94
2022-10-25T06:56:28.355Z,2.13
2022-10-25T06:58:55.908Z,3.44
2022-10-25T07:01:25.014Z,2.19
2022-10-25T07:03:53.269Z,3.09
2022-10-25T07:06:26.359Z,2.29
2022-10-25T07:08:56.258Z,1.76
2022-10-25T07:11:25.067Z,1.84
2022-10-25T07:13:51.901Z,1.93
2022-10-25T07:16:20.938Z,1.85
2022-10-25T07:18:48.482Z,1.86
2022-10-25T07:21:18.336Z,2.52
2022-10-25T07:23:45.020Z,4.29
2022-10-25T07:26:20.786Z,11.67
2022-10-25T07:28:49.502Z,19.14
2022-10-25T07:31:23.880Z,19.03
2022-10-25T07:33:53.270Z,6.44
2022-10-25T07:36:20.768Z,3.26
2022-10-25T07:38:47.377Z,2.67
2022-10-25T07:41:14.071Z,2.46
2022-10-25T07:43:43.169Z,2.26
2022-10-25T07:46:09.775Z,2.24
2022-10-25T07:48:36.900Z,2.35
2022-10-25T07:51:10.326Z,2.83
2022-10-25T07:53:36.961Z,2.91
2022-10-25T07:56:03.853Z,3.18
2022-10-25T07:58:30.723Z,2.74
2022-10-25T08:01:04.657Z,2.58
2022-10-25T08:03:31.984Z,2.55
2022-10-25T08:05:59.937Z,2.81
2022-10-25T08:08:27.131Z,3.19
2022-10-25T08:10:54.270Z,3.13
2022-10-25T08:13:20.870Z,9.90
2022-10-25T08:15:54.808Z,4.76
2022-10-25T08:18:23.209Z,4.05
2022-10-25T08:21:01.887Z,2.04
2022-10-25T08:23:30.199Z,1.68
2022-10-25T08:25:56.961Z,1.63
2022-10-25T08:28:23.542Z,1.53
2022-10-25T08:30:50.154Z,1.63
2022-10-25T08:33:16.728Z,1.67
2022-10-25T08:35:43.301Z,1.81
2022-10-25T08:38:10.008Z,5.09
2022-10-25T08:40:42.273Z,2.16
2022-10-25T08:43:20.834Z,1.78
2022-10-25T08:45:58.181Z,1.58
2022-10-25T08:48:32.743Z,1.70
2022-10-25T08:51:12.342Z,1.68
2022-10-25T08:53:46.500Z,1.77
2022-10-25T08:56:18.415Z,1.80
2022-10-25T08:58:50.520Z,1.64
2022-10-25T09:01:27.272Z,1.69
2022-10-25T09:03:54.507Z,1.79
2022-10-25T09:06:26.666Z,2.13
2022-10-25T09:09:05.595Z,2.24
2022-10-25T09:11:48.770Z,2.02
2022-10-25T09:14:27.497Z,2.49
2022-10-25T09:17:06.678Z,2.30
2022-10-25T09:19:38.921Z,2.35
2022-10-25T09:22:15.547Z,2.25
2022-10-25T09:25:09.523Z,2.29
2022-10-25T09:27:43.726Z,2.29
2022-10-25T09:30:12.551Z,2.61
2022-10-25T09:32:45.468Z,2.89
2022-10-25T09:35:31.052Z,2.76
2022-10-25T09:38:11.549Z,2.67
2022-10-25T09:40:50.781Z,2.33
2022-10-25T09:43:24.058Z,2.26
2022-10-25T09:45:55.770Z,2.52
2022-10-25T09:48:43.027Z,2.32
2022-10-25T09:51:31.314Z,2.37
2022-10-25T09:54:00.570Z,2.37
2022-10-25T09:56:27.233Z,2.83
2022-10-25T09:58:53.856Z,2.43
2022-10-25T10:01:27.044Z,2.78
2022-10-25T10:04:15.336Z,2.52
2022-10-25T10:06:42.588Z,2.83
2022-10-25T10:09:14.347Z,2.71
2022-10-25T10:11:42.421Z,2.63
2022-10-25T10:14:20.620Z,2.54
2022-10-25T10:16:56.303Z,2.54
2022-10-25T10:19:26.227Z,2.93
2022-10-25T10:22:06.533Z,2.81
2022-10-25T10:24:47.080Z,2.84
2022-10-25T10:27:26.226Z,2.94
2022-10-25T10:29:58.927Z,2.86
2022-10-25T10:32:37.725Z,2.68
2022-10-25T10:35:11.018Z,2.62
2022-10-25T10:37:37.617Z,3.01
2022-10-25T10:40:23.371Z,2.79
2022-10-25T10:42:50.351Z,2.99
2022-10-25T10:45:19.077Z,2.81
2022-10-25T10:47:48.671Z,2.97
2022-10-25T10:50:21.198Z,2.97
2022-10-25T10:53:00.372Z,2.88
2022-10-25T10:55:33.273Z,2.82
2022-10-25T10:58:02.905Z,2.95
2022-10-25T11:00:32.238Z,3.06
2022-10-25T11:02:58.987Z,6.52
2022-10-25T11:05:26.812Z,4.73
2022-10-25T11:08:00.450Z,3.06
2022-10-25T11:10:28.506Z,2.93
2022-10-25T11:13:19.130Z,3.07
2022-10-25T11:15:51.710Z,2.81
2022-10-25T11:18:35.190Z,3.03
2022-10-25T11:21:16.787Z,3.34
2022-10-25T11:24:21.921Z,3.17
2022-10-25T11:26:51.350Z,4.09
2022-10-25T11:29:56.837Z,3.46
2022-10-25T11:32:29.453Z,3.90
2022-10-25T11:35:07.947Z,3.81
2022-10-25T11:38:02.435Z,3.04
2022-10-25T11:41:13.101Z,3.25
2022-10-25T11:44:05.735Z,3.38
2022-10-25T11:46:41.371Z,3.21
2022-10-25T11:49:13.873Z,3.43
2022-10-25T11:51:46.492Z,4.29
2022-10-25T11:54:51.238Z,4.00
2022-10-25T11:57:39.628Z,4.78
2022-10-25T12:00:22.120Z,4.55
2022-10-25T12:03:19.689Z,3.45
2022-10-25T12:06:09.982Z,3.29
2022-10-25T12:08:47.292Z,3.39
2022-10-25T12:11:27.924Z,2.90
2022-10-25T12:14:07.811Z,3.17
2022-10-25T12:16:37.186Z,3.13
2022-10-25T12:19:20.925Z,3.11
2022-10-25T12:22:14.634Z,3.32
2022-10-25T12:24:52.201Z,3.19
2022-10-25T12:27:21.828Z,3.08
2022-10-25T12:29:55.770Z,3.60
2022-10-25T12:32:41.449Z,3.36
2022-10-25T12:35:29.689Z,3.28
2022-10-25T12:38:02.066Z,3.28
2022-10-25T12:40:29.388Z,3.20
2022-10-25T12:43:15.894Z,3.40
2022-10-25T12:46:01.366Z,3.27
2022-10-25T12:49:05.441Z,3.44
2022-10-25T12:52:02.666Z,3.90
2022-10-25T12:55:02.924Z,4.26
2022-10-25T12:57:35.528Z,4.24
2022-10-25T13:00:12.014Z,4.78
2022-10-25T13:03:19.281Z,5.20
2022-10-25T13:06:15.453Z,4.83
2022-10-25T13:08:44.031Z,5.33
2022-10-25T13:11:12.077Z,5.49
2022-10-25T13:13:53.016Z,5.46
2022-10-25T13:16:25.637Z,5.65
2022-10-25T13:19:53.640Z,5.38
2022-10-25T13:22:39.235Z,5.80
2022-10-25T13:25:12.159Z,5.15
2022-10-25T13:28:00.172Z,5.43
2022-10-25T13:30:29.869Z,5.33
2022-10-25T13:33:16.321Z,5.82
2022-10-25T13:35:42.855Z,5.52
2022-10-25T13:38:24.919Z,5.36
2022-10-25T13:41:24.193Z,5.41
2022-10-25T13:44:05.428Z,5.65
2022-10-25T13:46:40.885Z,5.70
2022-10-25T13:49:26.289Z,5.66
2022-10-25T13:51:58.998Z,5.31
2022-10-25T13:54:46.638Z,5.44
2022-10-25T13:57:49.053Z,5.53
2022-10-25T14:00:21.410Z,5.66
2022-10-25T14:03:09.904Z,5.68
2022-10-25T14:05:54.685Z,6.27
2022-10-25T14:08:24.518Z,5.86
2022-10-25T14:10:53.205Z,5.94
2022-10-25T14:13:30.401Z,5.86
2022-10-25T14:16:02.738Z,6.02
2022-10-25T14:18:33.468Z,5.31
2022-10-25T14:21:05.075Z,5.99
2022-10-25T14:23:34.741Z,6.05
2022-10-25T14:26:03.044Z,6.00
2022-10-25T14:28:32.404Z,5.83
2022-10-25T14:31:01.648Z,5.59
2022-10-25T14:33:32.153Z,5.61
2022-10-25T14:36:04.783Z,5.36
2022-10-25T14:38:35.273Z,6.04
2022-10-25T14:41:10.432Z,6.08
2022-10-25T14:43:38.785Z,6.38
2022-10-25T14:46:15.318Z,6.85
2022-10-25T14:48:44.787Z,7.23
2022-10-25T14:51:19.325Z,6.58
2022-10-25T14:54:20.090Z,6.39
2022-10-25T14:56:46.662Z,6.44
2022-10-25T14:59:44.862Z,7.01
2022-10-25T15:02:26.059Z,6.92
2022-10-25T15:04:57.659Z,7.41
2022-10-25T15:07:32.300Z,7.12
2022-10-25T15:10:01.227Z,6.71
2022-10-25T15:12:32.491Z,6.25
2022-10-25T15:15:57.447Z,5.23
2022-10-25T15:18:36.999Z,5.85
2022-10-25T15:21:13.259Z,5.54
2022-10-25T15:23:44.194Z,6.52
2022-10-25T15:26:28.661Z,6.87
2022-10-25T15:28:59.644Z,6.42
2022-10-25T15:31:32.338Z,6.23
2022-10-25T15:34:03.778Z,5.72
2022-10-25T15:36:33.016Z,5.80
2022-10-25T15:39:09.362Z,5.60
2022-10-25T15:41:39.491Z,7.20
2022-10-25T15:44:06.105Z,6.20
2022-10-25T15:46:35.051Z,5.71
2022-10-25T15:49:08.559Z,5.61
2022-10-25T15:51:42.010Z,5.43
2022-10-25T15:54:19.529Z,6.00
2022-10-25T15:56:47.085Z,6.21
2022-10-25T15:59:17.856Z,6.20
2022-10-25T16:01:51.759Z,6.05
2022-10-25T16:04:19.573Z,6.25
2022-10-25T16:06:47.115Z,7.11
2022-10-25T16:09:13.868Z,7.45
2022-10-25T16:11:47.017Z,7.13
2022-10-25T16:14:26.833Z,6.93
2022-10-25T16:16:53.457Z,7.02
2022-10-25T16:19:20.572Z,7.17
2022-10-25T16:21:48.341Z,7.59
2022-10-25T16:24:15.114Z,7.34
2022-10-25T16:26:44.594Z,7.29
2022-10-25T16:29:16.460Z,7.33
2022-10-25T16:31:44.174Z,7.63
2022-10-25T16:34:12.393Z,7.94
2022-10-25T16:36:41.837Z,7.12
2022-10-25T16:39:08.479Z,6.76
2022-10-25T16:41:41.905Z,6.87
2022-10-25T16:44:11.967Z,6.60
2022-10-25T16:46:39.177Z,7.11
2022-10-25T16:49:06.032Z,7.30
2022-10-25T16:51:32.810Z,6.96
2022-10-25T16:53:59.652Z,7.47
2022-10-25T16:56:26.371Z,8.49
2022-10-25T16:58:53.014Z,8.04
2022-10-25T17:01:31.714Z,7.20
2022-10-25T17:03:58.476Z,8.70
2022-10-25T17:06:42.030Z,7.84
2022-10-25T17:09:09.701Z,8.96
2022-10-25T17:11:37.740Z,38.48
2022-10-25T17:14:04.929Z,18.62
2022-10-25T17:16:32.059Z,16.00
2022-10-25T17:18:58.721Z,28.38
2022-10-25T17:21:25.400Z,15.23
2022-10-25T17:23:52.059Z,15.15
2022-10-25T17:26:18.730Z,9.48
2022-10-25T17:28:45.396Z,8.79
2022-10-25T17:31:14.738Z,7.85
2022-10-25T17:33:41.954Z,8.42
2022-10-25T17:36:15.010Z,8.79
2022-10-25T17:38:42.449Z,9.46
2022-10-25T17:41:10.382Z,12.08
2022-10-25T17:43:39.345Z,14.03
2022-10-25T17:46:09.962Z,12.48
2022-10-25T17:48:36.582Z,12.44
2022-10-25T17:51:05.836Z,12.91
2022-10-25T17:53:32.850Z,12.75
2022-10-25T17:56:12.966Z,13.22
2022-10-25T17:58:44.997Z,12.15
2022-10-25T18:01:14.259Z,13.80
2022-10-25T18:03:41.018Z,13.23
2022-10-25T18:06:11.645Z,13.06
2022-10-25T18:08:38.568Z,13.81
2022-10-25T18:11:25.192Z,15.83
2022-10-25T18:14:00.408Z,16.74
2022-10-25T18:16:28.543Z,15.30
2022-10-25T18:18:56.991Z,14.92
2022-10-25T18:21:24.605Z,13.95
2022-10-25T18:23:58.637Z,14.11
2022-10-25T18:26:26.418Z,13.22
2022-10-25T18:28:53.104Z,13.18
2022-10-25T18:31:20.511Z,13.68
2022-10-25T18:33:47.433Z,13.69
2022-10-25T18:36:16.866Z,14.58
2022-10-25T18:38:46.980Z,15.57
2022-10-25T18:41:16.813Z,15.37
2022-10-25T18:43:43.785Z,14.42
2022-10-25T18:46:10.838Z,13.95
2022-10-25T18:48:37.569Z,13.61
2022-10-25T18:51:10.792Z,15.32
2022-10-25T18:53:38.286Z,15.68
2022-10-25T18:56:10.617Z,14.85
2022-10-25T18:58:38.319Z,14.27
2022-10-25T19:01:13.870Z,12.69
2022-10-25T19:03:41.175Z,11.97
2022-10-25T19:06:11.610Z,12.27
2022-10-25T19:08:38.844Z,9.81
2022-10-25T19:11:07.799Z,9.54
2022-10-25T19:13:35.423Z,9.39
2022-10-25T19:16:02.680Z,9.47
2022-10-25T19:18:30.866Z,9.71
2022-10-25T19:21:12.016Z,9.28
2022-10-25T19:23:38.851Z,9.94
2022-10-25T19:26:08.340Z,9.73
2022-10-25T19:28:35.847Z,9.23
2022-10-25T19:31:10.959Z,8.94
2022-10-25T19:33:37.723Z,8.40
2022-10-25T19:36:11.552Z,9.87
2022-10-25T19:38:39.475Z,15.41
2022-10-25T19:41:10.764Z,14.13
2022-10-25T19:43:37.426Z,13.11
2022-10-25T19:46:06.171Z,10.57
2022-10-25T19:48:33.829Z,8.79
2022-10-25T19:51:08.853Z,8.92
2022-10-25T19:53:35.583Z,9.11
2022-10-25T19:56:05.306Z,8.60
2022-10-25T19:58:31.912Z,8.66
2022-10-25T20:01:08.465Z,8.12
2022-10-25T20:03:36.923Z,8.62
2022-10-25T20:06:07.540Z,8.18
2022-10-25T20:08:36.081Z,7.68
2022-10-25T20:11:03.268Z,7.63
2022-10-25T20:13:30.754Z,7.87
2022-10-25T20:15:57.734Z,7.87
2022-10-25T20:18:28.862Z,8.33
2022-10-25T20:21:08.494Z,8.91
2022-10-25T20:23:35.925Z,9.68
2022-10-25T20:26:24.328Z,9.24
2022-10-25T20:28:56.120Z,8.56
2022-10-25T20:31:24.399Z,8.70
2022-10-25T20:33:52.644Z,8.80
2022-10-25T20:36:20.146Z,8.55
2022-10-25T20:38:47.462Z,8.83
2022-10-25T20:41:19.265Z,8.70
2022-10-25T20:43:48.013Z,8.80
2022-10-25T20:46:15.894Z,8.54
2022-10-25T20:48:43.305Z,8.90
2022-10-25T20:51:11.459Z,9.12
2022-10-25T20:53:40.099Z,8.89
2022-10-25T20:56:06.963Z,9.02
2022-10-25T20:58:34.492Z,8.93
2022-10-25T21:01:01.938Z,10.20
2022-10-25T21:03:31.383Z,9.35
2022-10-25T21:06:00.479Z,9.45
2022-10-25T21:08:27.981Z,9.20
2022-10-25T21:10:55.844Z,9.19
2022-10-25T21:13:23.431Z,9.01
2022-10-25T21:15:52.342Z,8.88
2022-10-25T21:18:19.644Z,9.07
2022-10-25T21:20:48.369Z,9.45
2022-10-25T21:23:14.999Z,9.10
2022-10-25T21:25:41.594Z,9.50
2022-10-25T21:28:09.716Z,9.33
2022-10-25T21:30:36.355Z,9.48
2022-10-25T21:33:03.955Z,9.38
2022-10-25T21:35:30.639Z,9.07
2022-10-25T21:37:57.423Z,9.16
2022-10-25T21:40:23.997Z,9.42
2022-10-25T21:42:50.612Z,9.65
2022-10-25T21:45:17.306Z,8.92
2022-10-25T21:47:43.880Z,9.09
2022-10-25T21:50:10.473Z,8.31
2022-10-25T21:52:37.297Z,8.37
2022-10-25T21:55:04.155Z,8.58
2022-10-25T21:57:30.722Z,9.06
2022-10-25T21:59:57.328Z,9.70
2022-10-25T22:02:24.139Z,9.40
2022-10-25T22:04:53.380Z,9.47
2022-10-25T22:07:20.010Z,9.08
2022-10-25T22:09:46.649Z,8.92
2022-10-25T22:12:13.227Z,8.32
2022-10-25T22:14:39.808Z,9.46
2022-10-25T22:17:06.481Z,9.38
2022-10-25T22:19:33.125Z,9.01
2022-10-25T22:21:59.766Z,8.61
2022-10-25T22:24:26.385Z,9.35
2022-10-25T22:26:53.108Z,9.97
2022-10-25T22:29:20.002Z,10.40
2022-10-25T22:31:46.626Z,10.90
2022-10-25T22:34:13.259Z,10.22
2022-10-25T22:36:41.569Z,9.59
2022-10-25T22:39:09.375Z,10.11
2022-10-25T22:41:36.755Z,10.82
2022-10-25T22:44:03.731Z,11.36
2022-10-25T22:46:33.923Z,11.56
2022-10-25T22:49:05.889Z,11.22
2022-10-25T22:51:33.156Z,11.14
2022-10-25T22:54:00.195Z,11.14
2022-10-25T22:56:28.936Z,11.03
2022-10-25T22:58:57.950Z,10.95
2022-10-25T23:01:27.916Z,10.71
2022-10-25T23:03:56.668Z,10.38
2022-10-25T23:06:26.372Z,10.90
2022-10-25T23:08:58.093Z,10.76
2022-10-25T23:11:27.238Z,10.50
2022-10-25T23:13:54.054Z,10.77
2022-10-25T23:16:20.763Z,10.64
2022-10-25T23:18:47.378Z,10.56
2022-10-25T23:21:20.856Z,11.19
2022-10-25T23:23:47.650Z,10.56
2022-10-25T23:26:20.447Z,9.86
2022-10-25T23:28:47.622Z,9.25
2022-10-25T23:31:15.580Z,9.68
2022-10-25T23:33:43.313Z,8.49
2022-10-25T23:36:17.792Z,8.78
2022-10-25T23:38:44.839Z,9.18
2022-10-25T23:41:12.597Z,11.54
2022-10-25T23:43:39.996Z,12.72
2022-10-25T23:46:07.732Z,14.22
2022-10-25T23:48:34.481Z,12.32
2022-10-25T23:51:12.965Z,13.48
2022-10-25T23:53:39.834Z,14.59
2022-10-25T23:56:08.833Z,15.31
2022-10-25T23:58:35.696Z,13.79
